sensor_id;sensor_type;location;lat;lon;timestamp;pressure;altitude;pressure_sealevel;temperature;humidity
40171;BME280;37650;52.790;18.268;2023-02-15T00:02:20;102298.21;;;-0.21;100.00
40171;BME280;37650;52.790;18.268;2023-02-15T00:05:41;102298.37;;;-0.22;100.00
40171;BME280;37650;52.790;18.268;2023-02-15T00:09:02;102296.16;;;-0.26;100.00
40171;BME280;37650;52.790;18.268;2023-02-15T00:12:23;102293.05;;;-0.30;100.00
40171;BME280;37650;52.790;18.268;2023-02-15T00:15:44;102292.89;;;-0.35;100.00
40171;BME280;37650;52.790;18.268;2023-02-15T00:19:06;102291.23;;;-0.42;100.00
40171;BME280;37650;52.790;18.268;2023-02-15T00:22:28;102289.56;;;-0.50;100.00
40171;BME280;37650;52.790;18.268;2023-02-15T00:25:49;102291.05;;;-0.56;100.00
40171;BME280;37650;52.790;18.268;2023-02-15T00:29:12;102293.99;;;-0.60;100.00
40171;BME280;37650;52.790;18.268;2023-02-15T00:32:33;102296.38;;;-0.61;100.00
40171;BME280;37650;52.790;18.268;2023-02-15T00:35:58;102296.52;;;-0.61;100.00
40171;BME280;37650;52.790;18.268;2023-02-15T00:39:29;102292.98;;;-0.63;100.00
40171;BME280;37650;52.790;18.268;2023-02-15T00:43:06;102296.66;;;-0.67;100.00
40171;BME280;37650;52.790;18.268;2023-02-15T00:46:27;102295.48;;;-0.70;100.00
40171;BME280;37650;52.790;18.268;2023-02-15T00:49:48;102292.50;;;-0.76;100.00
40171;BME280;37650;52.790;18.268;2023-02-15T00:53:09;102294.79;;;-0.79;100.00
40171;BME280;37650;52.790;18.268;2023-02-15T00:57:07;102295.07;;;-0.81;100.00
40171;BME280;37650;52.790;18.268;2023-02-15T01:00:28;102298.14;;;-0.81;100.00
40171;BME280;37650;52.790;18.268;2023-02-15T01:03:51;102292.94;;;-0.82;100.00
40171;BME280;37650;52.790;18.268;2023-02-15T01:07:11;102293.42;;;-0.88;100.00
40171;BME280;37650;52.790;18.268;2023-02-15T01:10:33;102294.45;;;-0.92;100.00
40171;BME280;37650;52.790;18.268;2023-02-15T01:13:55;102290.95;;;-0.97;100.00
40171;BME280;37650;52.790;18.268;2023-02-15T01:17:17;102293.20;;;-1.06;100.00
40171;BME280;37650;52.790;18.268;2023-02-15T01:20:39;102289.34;;;-1.12;100.00
40171;BME280;37650;52.790;18.268;2023-02-15T01:24:02;102285.95;;;-1.15;100.00
40171;BME280;37650;52.790;18.268;2023-02-15T01:27:23;102280.85;;;-1.17;100.00
40171;BME280;37650;52.790;18.268;2023-02-15T01:30:44;102275.54;;;-1.16;100.00
40171;BME280;37650;52.790;18.268;2023-02-15T01:34:05;102275.13;;;-1.14;100.00
40171;BME280;37650;52.790;18.268;2023-02-15T01:37:26;102268.02;;;-1.15;100.00
40171;BME280;37650;52.790;18.268;2023-02-15T01:40:51;102270.45;;;-1.18;100.00
40171;BME280;37650;52.790;18.268;2023-02-15T01:48:22;102262.10;;;-1.21;100.00
40171;BME280;37650;52.790;18.268;2023-02-15T01:51:45;102257.37;;;-1.23;100.00
40171;BME280;37650;52.790;18.268;2023-02-15T01:55:08;102251.25;;;-1.21;100.00
40171;BME280;37650;52.790;18.268;2023-02-15T01:58:30;102252.21;;;-1.27;100.00
40171;BME280;37650;52.790;18.268;2023-02-15T02:01:56;102248.70;;;-1.33;100.00
40171;BME280;37650;52.790;18.268;2023-02-15T02:05:18;102248.31;;;-1.42;100.00
40171;BME280;37650;52.790;18.268;2023-02-15T02:08:40;102246.52;;;-1.52;100.00
40171;BME280;37650;52.790;18.268;2023-02-15T02:12:03;102245.23;;;-1.50;100.00
40171;BME280;37650;52.790;18.268;2023-02-15T02:15:38;102245.04;;;-1.51;100.00
40171;BME280;37650;52.790;18.268;2023-02-15T02:41:22;102233.54;;;-1.12;100.00
40171;BME280;37650;52.790;18.268;2023-02-15T02:44:59;102236.70;;;-1.02;100.00
40171;BME280;37650;52.790;18.268;2023-02-15T02:48:26;102235.35;;;-0.88;100.00
40171;BME280;37650;52.790;18.268;2023-02-15T02:51:58;102224.21;;;-0.72;100.00
40171;BME280;37650;52.790;18.268;2023-02-15T02:55:42;102221.02;;;-0.61;100.00
40171;BME280;37650;52.790;18.268;2023-02-15T03:02:31;102217.63;;;-0.60;100.00
40171;BME280;37650;52.790;18.268;2023-02-15T03:05:58;102216.60;;;-0.51;100.00
40171;BME280;37650;52.790;18.268;2023-02-15T03:09:23;102220.36;;;-0.47;100.00
40171;BME280;37650;52.790;18.268;2023-02-15T03:12:45;102220.56;;;-0.42;100.00
40171;BME280;37650;52.790;18.268;2023-02-15T03:16:09;102218.73;;;-0.35;100.00
40171;BME280;37650;52.790;18.268;2023-02-15T03:19:50;102214.73;;;-0.26;100.00
40171;BME280;37650;52.790;18.268;2023-02-15T03:23:16;102216.48;;;-0.16;100.00
40171;BME280;37650;52.790;18.268;2023-02-15T03:26:40;102218.60;;;-0.10;100.00
40171;BME280;37650;52.790;18.268;2023-02-15T03:30:05;102218.14;;;-0.13;100.00
40171;BME280;37650;52.790;18.268;2023-02-15T03:33:28;102219.27;;;-0.11;100.00
40171;BME280;37650;52.790;18.268;2023-02-15T03:37:10;102221.84;;;-0.07;100.00
40171;BME280;37650;52.790;18.268;2023-02-15T03:40:41;102217.67;;;-0.07;100.00
40171;BME280;37650;52.790;18.268;2023-02-15T03:44:31;102220.86;;;-0.05;100.00
40171;BME280;37650;52.790;18.268;2023-02-15T03:47:54;102212.73;;;-0.06;100.00
40171;BME280;37650;52.790;18.268;2023-02-15T03:51:23;102218.81;;;0.01;100.00
40171;BME280;37650;52.790;18.268;2023-02-15T03:54:56;102218.38;;;-0.02;100.00
40171;BME280;37650;52.790;18.268;2023-02-15T03:58:17;102215.63;;;0.03;100.00
40171;BME280;37650;52.790;18.268;2023-02-15T04:02:20;102209.69;;;0.07;100.00
40171;BME280;37650;52.790;18.268;2023-02-15T04:05:44;102207.80;;;0.12;100.00
40171;BME280;37650;52.790;18.268;2023-02-15T04:09:05;102198.64;;;0.16;100.00
40171;BME280;37650;52.790;18.268;2023-02-15T04:12:44;102199.02;;;0.27;100.00
40171;BME280;37650;52.790;18.268;2023-02-15T04:16:06;102198.54;;;0.33;100.00
40171;BME280;37650;52.790;18.268;2023-02-15T04:19:27;102194.69;;;0.36;100.00
40171;BME280;37650;52.790;18.268;2023-02-15T04:23:07;102188.84;;;0.38;100.00
40171;BME280;37650;52.790;18.268;2023-02-15T04:26:46;102182.08;;;0.36;100.00
40171;BME280;37650;52.790;18.268;2023-02-15T04:30:15;102180.52;;;0.36;100.00
40171;BME280;37650;52.790;18.268;2023-02-15T04:33:37;102180.36;;;0.37;100.00
40171;BME280;37650;52.790;18.268;2023-02-15T04:36:58;102181.02;;;0.40;100.00
40171;BME280;37650;52.790;18.268;2023-02-15T04:40:19;102183.02;;;0.45;100.00
40171;BME280;37650;52.790;18.268;2023-02-15T04:43:40;102186.58;;;0.48;100.00
40171;BME280;37650;52.790;18.268;2023-02-15T04:47:01;102185.10;;;0.50;100.00
40171;BME280;37650;52.790;18.268;2023-02-15T04:50:22;102178.77;;;0.52;100.00
40171;BME280;37650;52.790;18.268;2023-02-15T04:53:43;102171.41;;;0.48;100.00
40171;BME280;37650;52.790;18.268;2023-02-15T04:57:05;102172.76;;;0.47;100.00
40171;BME280;37650;52.790;18.268;2023-02-15T05:00:26;102181.81;;;0.45;100.00
40171;BME280;37650;52.790;18.268;2023-02-15T05:03:48;102185.28;;;0.45;100.00
40171;BME280;37650;52.790;18.268;2023-02-15T05:07:09;102180.23;;;0.49;100.00
40171;BME280;37650;52.790;18.268;2023-02-15T05:10:30;102182.27;;;0.53;100.00
40171;BME280;37650;52.790;18.268;2023-02-15T05:13:51;102180.10;;;0.51;100.00
40171;BME280;37650;52.790;18.268;2023-02-15T05:17:12;102181.58;;;0.48;100.00
40171;BME280;37650;52.790;18.268;2023-02-15T05:20:33;102181.30;;;0.39;100.00
40171;BME280;37650;52.790;18.268;2023-02-15T05:23:54;102181.99;;;0.39;100.00
40171;BME280;37650;52.790;18.268;2023-02-15T05:27:15;102183.17;;;0.33;100.00
40171;BME280;37650;52.790;18.268;2023-02-15T05:31:05;102180.73;;;0.38;100.00
40171;BME280;37650;52.790;18.268;2023-02-15T05:34:27;102179.66;;;0.41;100.00
40171;BME280;37650;52.790;18.268;2023-02-15T05:37:48;102183.05;;;0.46;100.00
40171;BME280;37650;52.790;18.268;2023-02-15T05:41:11;102177.83;;;0.44;100.00
40171;BME280;37650;52.790;18.268;2023-02-15T05:44:31;102178.14;;;0.43;100.00
40171;BME280;37650;52.790;18.268;2023-02-15T05:47:52;102172.73;;;0.47;100.00
40171;BME280;37650;52.790;18.268;2023-02-15T05:51:13;102171.96;;;0.50;100.00
40171;BME280;37650;52.790;18.268;2023-02-15T05:54:36;102171.49;;;0.45;100.00
40171;BME280;37650;52.790;18.268;2023-02-15T05:57:57;102171.96;;;0.39;100.00
40171;BME280;37650;52.790;18.268;2023-02-15T06:01:19;102169.42;;;0.29;100.00
40171;BME280;37650;52.790;18.268;2023-02-15T06:04:42;102169.98;;;0.26;100.00
40171;BME280;37650;52.790;18.268;2023-02-15T06:08:03;102170.44;;;0.24;100.00
40171;BME280;37650;52.790;18.268;2023-02-15T06:11:24;102170.61;;;0.29;100.00
40171;BME280;37650;52.790;18.268;2023-02-15T06:14:45;102175.05;;;0.33;100.00
40171;BME280;37650;52.790;18.268;2023-02-15T06:18:23;102173.21;;;0.35;100.00
40171;BME280;37650;52.790;18.268;2023-02-15T06:22:01;102175.73;;;0.33;100.00
40171;BME280;37650;52.790;18.268;2023-02-15T06:25:22;102176.27;;;0.39;100.00
40171;BME280;37650;52.790;18.268;2023-02-15T06:28:43;102174.48;;;0.37;100.00
40171;BME280;37650;52.790;18.268;2023-02-15T06:32:05;102178.92;;;0.35;100.00
40171;BME280;37650;52.790;18.268;2023-02-15T06:35:26;102180.16;;;0.36;100.00
40171;BME280;37650;52.790;18.268;2023-02-15T06:38:47;102181.46;;;0.39;100.00
40171;BME280;37650;52.790;18.268;2023-02-15T06:42:07;102181.79;;;0.38;100.00
40171;BME280;37650;52.790;18.268;2023-02-15T06:45:28;102183.48;;;0.43;100.00
40171;BME280;37650;52.790;18.268;2023-02-15T06:48:49;102186.54;;;0.46;100.00
40171;BME280;37650;52.790;18.268;2023-02-15T06:52:12;102183.13;;;0.48;100.00
40171;BME280;37650;52.790;18.268;2023-02-15T06:55:33;102184.95;;;0.51;100.00
40171;BME280;37650;52.790;18.268;2023-02-15T06:58:55;102180.63;;;0.51;100.00
40171;BME280;37650;52.790;18.268;2023-02-15T07:02:17;102172.98;;;0.54;100.00
40171;BME280;37650;52.790;18.268;2023-02-15T07:05:38;102172.58;;;0.58;100.00
40171;BME280;37650;52.790;18.268;2023-02-15T07:08:59;102175.59;;;0.60;100.00
40171;BME280;37650;52.790;18.268;2023-02-15T07:12:20;102171.95;;;0.65;100.00
40171;BME280;37650;52.790;18.268;2023-02-15T07:16:00;102160.01;;;0.70;100.00
40171;BME280;37650;52.790;18.268;2023-02-15T07:19:21;102158.83;;;0.82;100.00
40171;BME280;37650;52.790;18.268;2023-02-15T07:22:42;102154.41;;;0.90;100.00
40171;BME280;37650;52.790;18.268;2023-02-15T07:26:05;102155.95;;;1.01;100.00
40171;BME280;37650;52.790;18.268;2023-02-15T07:29:28;102153.95;;;1.09;100.00
40171;BME280;37650;52.790;18.268;2023-02-15T07:32:49;102151.35;;;1.14;100.00
40171;BME280;37650;52.790;18.268;2023-02-15T07:36:28;102148.46;;;1.21;100.00
40171;BME280;37650;52.790;18.268;2023-02-15T07:39:49;102145.20;;;1.29;100.00
40171;BME280;37650;52.790;18.268;2023-02-15T07:43:11;102142.70;;;1.38;100.00
40171;BME280;37650;52.790;18.268;2023-02-15T07:46:32;102145.48;;;1.45;100.00
40171;BME280;37650;52.790;18.268;2023-02-15T07:49:54;102140.07;;;1.49;100.00
40171;BME280;37650;52.790;18.268;2023-02-15T07:53:39;102136.03;;;1.59;100.00
40171;BME280;37650;52.790;18.268;2023-02-15T07:57:01;102137.54;;;1.63;100.00
40171;BME280;37650;52.790;18.268;2023-02-15T08:00:22;102127.05;;;1.73;100.00
40171;BME280;37650;52.790;18.268;2023-02-15T08:03:44;102121.84;;;1.78;100.00
40171;BME280;37650;52.790;18.268;2023-02-15T08:07:06;102118.46;;;1.82;100.00
40171;BME280;37650;52.790;18.268;2023-02-15T08:10:27;102120.58;;;1.89;100.00
40171;BME280;37650;52.790;18.268;2023-02-15T08:17:36;102119.49;;;2.01;100.00
40171;BME280;37650;52.790;18.268;2023-02-15T08:20:57;102113.67;;;2.04;100.00
40171;BME280;37650;52.790;18.268;2023-02-15T08:24:23;102111.30;;;2.05;100.00
40171;BME280;37650;52.790;18.268;2023-02-15T08:27:43;102102.15;;;2.14;100.00
40171;BME280;37650;52.790;18.268;2023-02-15T08:31:10;102096.52;;;2.24;100.00
40171;BME280;37650;52.790;18.268;2023-02-15T08:34:36;102092.89;;;2.24;100.00
40171;BME280;37650;52.790;18.268;2023-02-15T08:37:57;102091.33;;;2.24;100.00
40171;BME280;37650;52.790;18.268;2023-02-15T08:41:24;102089.20;;;2.29;100.00
40171;BME280;37650;52.790;18.268;2023-02-15T08:44:45;102088.27;;;2.33;100.00
40171;BME280;37650;52.790;18.268;2023-02-15T08:48:06;102087.59;;;2.42;100.00
40171;BME280;37650;52.790;18.268;2023-02-15T08:51:31;102086.88;;;2.48;100.00
40171;BME280;37650;52.790;18.268;2023-02-15T08:54:52;102082.18;;;2.47;100.00
40171;BME280;37650;52.790;18.268;2023-02-15T08:58:13;102074.34;;;2.45;100.00
40171;BME280;37650;52.790;18.268;2023-02-15T09:01:34;102070.78;;;2.48;100.00
40171;BME280;37650;52.790;18.268;2023-02-15T09:04:55;102067.97;;;2.54;100.00
40171;BME280;37650;52.790;18.268;2023-02-15T09:08:16;102062.27;;;2.55;100.00
40171;BME280;37650;52.790;18.268;2023-02-15T09:11:42;102059.59;;;2.52;100.00
40171;BME280;37650;52.790;18.268;2023-02-15T09:15:04;102060.73;;;2.57;100.00
40171;BME280;37650;52.790;18.268;2023-02-15T09:18:26;102058.23;;;2.60;100.00
40171;BME280;37650;52.790;18.268;2023-02-15T09:21:47;102054.77;;;2.61;100.00
40171;BME280;37650;52.790;18.268;2023-02-15T09:25:09;102058.15;;;2.58;100.00
40171;BME280;37650;52.790;18.268;2023-02-15T09:28:30;102058.30;;;2.56;100.00
40171;BME280;37650;52.790;18.268;2023-02-15T09:31:52;102055.96;;;2.60;100.00
40171;BME280;37650;52.790;18.268;2023-02-15T09:35:13;102052.42;;;2.57;100.00
40171;BME280;37650;52.790;18.268;2023-02-15T09:38:34;102048.91;;;2.54;100.00
40171;BME280;37650;52.790;18.268;2023-02-15T09:45:58;102051.75;;;2.58;100.00
40171;BME280;37650;52.790;18.268;2023-02-15T09:56:45;102045.65;;;2.71;100.00
40171;BME280;37650;52.790;18.268;2023-02-15T10:15:07;102027.70;;;2.67;100.00
40171;BME280;37650;52.790;18.268;2023-02-15T10:29:38;102006.73;;;2.67;100.00
40171;BME280;37650;52.790;18.268;2023-02-15T10:33:02;102002.10;;;2.69;100.00
40171;BME280;37650;52.790;18.268;2023-02-15T10:36:27;101998.11;;;2.68;100.00
40171;BME280;37650;52.790;18.268;2023-02-15T10:40:25;101990.84;;;2.69;100.00
40171;BME280;37650;52.790;18.268;2023-02-15T10:50:48;101992.39;;;2.86;100.00
40171;BME280;37650;52.790;18.268;2023-02-15T10:58:08;101987.16;;;2.84;100.00
40171;BME280;37650;52.790;18.268;2023-02-15T11:01:55;101982.63;;;2.83;100.00
40171;BME280;37650;52.790;18.268;2023-02-15T11:05:34;101977.86;;;2.79;100.00
40171;BME280;37650;52.790;18.268;2023-02-15T11:09:02;101973.51;;;2.77;100.00
40171;BME280;37650;52.790;18.268;2023-02-15T11:12:27;101975.54;;;2.83;100.00
40171;BME280;37650;52.790;18.268;2023-02-15T11:19:30;101967.02;;;2.82;100.00
40171;BME280;37650;52.790;18.268;2023-02-15T11:22:53;101964.70;;;2.78;100.00
40171;BME280;37650;52.790;18.268;2023-02-15T11:29:57;101956.09;;;2.81;100.00
40171;BME280;37650;52.790;18.268;2023-02-15T11:33:31;101953.95;;;2.79;100.00
40171;BME280;37650;52.790;18.268;2023-02-15T11:36:58;101947.78;;;2.81;100.00
40171;BME280;37650;52.790;18.268;2023-02-15T11:40:25;101940.75;;;2.77;100.00
40171;BME280;37650;52.790;18.268;2023-02-15T11:44:06;101936.08;;;2.77;100.00
40171;BME280;37650;52.790;18.268;2023-02-15T11:47:28;101928.88;;;2.73;100.00
40171;BME280;37650;52.790;18.268;2023-02-15T11:50:49;101933.34;;;2.79;100.00
40171;BME280;37650;52.790;18.268;2023-02-15T11:54:10;101928.68;;;2.80;100.00
40171;BME280;37650;52.790;18.268;2023-02-15T11:57:36;101924.60;;;2.75;100.00
40171;BME280;37650;52.790;18.268;2023-02-15T12:01:16;101924.98;;;2.77;100.00
40171;BME280;37650;52.790;18.268;2023-02-15T12:04:40;101923.43;;;2.86;100.00
40171;BME280;37650;52.790;18.268;2023-02-15T12:08:13;101918.05;;;2.86;100.00
40171;BME280;37650;52.790;18.268;2023-02-15T12:11:38;101917.71;;;2.96;100.00
40171;BME280;37650;52.790;18.268;2023-02-15T12:15:10;101917.93;;;2.98;100.00
40171;BME280;37650;52.790;18.268;2023-02-15T12:21:56;101915.70;;;2.99;100.00
40171;BME280;37650;52.790;18.268;2023-02-15T12:25:33;101910.66;;;2.99;100.00
40171;BME280;37650;52.790;18.268;2023-02-15T12:28:59;101907.48;;;2.96;100.00
40171;BME280;37650;52.790;18.268;2023-02-15T12:32:24;101904.72;;;2.96;100.00
40171;BME280;37650;52.790;18.268;2023-02-15T12:35:46;101893.67;;;3.08;100.00
40171;BME280;37650;52.790;18.268;2023-02-15T12:42:42;101884.41;;;3.15;100.00
40171;BME280;37650;52.790;18.268;2023-02-15T12:46:26;101880.76;;;3.24;100.00
40171;BME280;37650;52.790;18.268;2023-02-15T12:50:21;101877.29;;;3.24;100.00
40171;BME280;37650;52.790;18.268;2023-02-15T12:53:42;101870.73;;;3.15;100.00
40171;BME280;37650;52.790;18.268;2023-02-15T13:00:46;101866.83;;;3.31;100.00
40171;BME280;37650;52.790;18.268;2023-02-15T13:04:24;101862.58;;;3.25;100.00
40171;BME280;37650;52.790;18.268;2023-02-15T13:07:49;101854.03;;;3.23;100.00
40171;BME280;37650;52.790;18.268;2023-02-15T13:11:11;101849.47;;;3.31;100.00
40171;BME280;37650;52.790;18.268;2023-02-15T13:14:33;101845.47;;;3.19;100.00
40171;BME280;37650;52.790;18.268;2023-02-15T13:17:57;101842.14;;;3.17;100.00
40171;BME280;37650;52.790;18.268;2023-02-15T13:21:23;101838.40;;;3.22;100.00
40171;BME280;37650;52.790;18.268;2023-02-15T13:24:48;101837.52;;;3.32;100.00
40171;BME280;37650;52.790;18.268;2023-02-15T13:28:14;101828.38;;;3.46;100.00
40171;BME280;37650;52.790;18.268;2023-02-15T13:31:36;101828.08;;;3.37;100.00
40171;BME280;37650;52.790;18.268;2023-02-15T13:35:00;101821.58;;;3.32;100.00
40171;BME280;37650;52.790;18.268;2023-02-15T13:38:45;101824.80;;;3.28;100.00
40171;BME280;37650;52.790;18.268;2023-02-15T13:42:18;101826.48;;;3.24;100.00
40171;BME280;37650;52.790;18.268;2023-02-15T14:11:02;101804.59;;;3.33;100.00
40171;BME280;37650;52.790;18.268;2023-02-15T14:21:47;101792.27;;;3.57;100.00
40171;BME280;37650;52.790;18.268;2023-02-15T14:25:31;101789.71;;;3.48;100.00
40171;BME280;37650;52.790;18.268;2023-02-15T14:32:39;101786.21;;;3.33;100.00
40171;BME280;37650;52.790;18.268;2023-02-15T14:36:04;101781.48;;;3.43;100.00
40171;BME280;37650;52.790;18.268;2023-02-15T14:39:47;101781.27;;;3.39;100.00
40171;BME280;37650;52.790;18.268;2023-02-15T14:53:57;101779.92;;;3.30;100.00
40171;BME280;37650;52.790;18.268;2023-02-15T15:00:42;101782.54;;;3.32;100.00
40171;BME280;37650;52.790;18.268;2023-02-15T15:04:06;101777.45;;;3.27;100.00
40171;BME280;37650;52.790;18.268;2023-02-15T15:07:41;101772.14;;;3.21;100.00
40171;BME280;37650;52.790;18.268;2023-02-15T15:14:52;101771.48;;;3.11;100.00
40171;BME280;37650;52.790;18.268;2023-02-15T15:18:43;101773.83;;;3.06;100.00
40171;BME280;37650;52.790;18.268;2023-02-15T15:22:05;101764.94;;;3.03;100.00
40171;BME280;37650;52.790;18.268;2023-02-15T15:25:54;101761.17;;;2.95;100.00
40171;BME280;37650;52.790;18.268;2023-02-15T15:29:40;101753.34;;;2.93;100.00
40171;BME280;37650;52.790;18.268;2023-02-15T15:48:37;101732.41;;;2.74;100.00
40171;BME280;37650;52.790;18.268;2023-02-15T15:52:01;101729.05;;;2.70;100.00
40171;BME280;37650;52.790;18.268;2023-02-15T15:55:27;101724.27;;;2.64;100.00
40171;BME280;37650;52.790;18.268;2023-02-15T15:58:57;101716.73;;;2.59;100.00
40171;BME280;37650;52.790;18.268;2023-02-15T16:02:20;101715.21;;;2.62;100.00
40171;BME280;37650;52.790;18.268;2023-02-15T16:05:45;101713.44;;;2.59;100.00
40171;BME280;37650;52.790;18.268;2023-02-15T16:09:24;101709.14;;;2.50;100.00
40171;BME280;37650;52.790;18.268;2023-02-15T16:12:47;101709.08;;;2.47;100.00
40171;BME280;37650;52.790;18.268;2023-02-15T16:16:20;101709.56;;;2.45;100.00
40171;BME280;37650;52.790;18.268;2023-02-15T16:19:43;101707.92;;;2.40;100.00
40171;BME280;37650;52.790;18.268;2023-02-15T16:23:35;101702.45;;;2.34;100.00
40171;BME280;37650;52.790;18.268;2023-02-15T16:27:19;101700.52;;;2.33;100.00
40171;BME280;37650;52.790;18.268;2023-02-15T16:30:44;101695.05;;;2.27;100.00
40171;BME280;37650;52.790;18.268;2023-02-15T16:34:14;101694.59;;;2.21;100.00
40171;BME280;37650;52.790;18.268;2023-02-15T16:37:37;101691.37;;;2.15;100.00
40171;BME280;37650;52.790;18.268;2023-02-15T16:40:59;101685.90;;;2.09;100.00
40171;BME280;37650;52.790;18.268;2023-02-15T16:44:24;101680.08;;;2.03;100.00
40171;BME280;37650;52.790;18.268;2023-02-15T16:47:49;101676.71;;;1.98;100.00
40171;BME280;37650;52.790;18.268;2023-02-15T16:51:20;101674.49;;;1.91;100.00
40171;BME280;37650;52.790;18.268;2023-02-15T16:54:55;101669.40;;;1.87;100.00
40171;BME280;37650;52.790;18.268;2023-02-15T16:58:24;101666.55;;;1.83;100.00
40171;BME280;37650;52.790;18.268;2023-02-15T17:01:47;101664.68;;;1.76;100.00
40171;BME280;37650;52.790;18.268;2023-02-15T17:05:17;101663.71;;;1.71;100.00
40171;BME280;37650;52.790;18.268;2023-02-15T17:08:44;101660.85;;;1.66;100.00
40171;BME280;37650;52.790;18.268;2023-02-15T17:12:08;101656.98;;;1.62;100.00
40171;BME280;37650;52.790;18.268;2023-02-15T17:15:46;101652.02;;;1.57;100.00
40171;BME280;37650;52.790;18.268;2023-02-15T17:19:28;101647.09;;;1.52;100.00
40171;BME280;37650;52.790;18.268;2023-02-15T17:22:52;101648.25;;;1.50;100.00
40171;BME280;37650;52.790;18.268;2023-02-15T17:26:17;101646.64;;;1.47;100.00
40171;BME280;37650;52.790;18.268;2023-02-15T17:29:55;101643.79;;;1.42;100.00
40171;BME280;37650;52.790;18.268;2023-02-15T17:33:25;101637.65;;;1.39;100.00
40171;BME280;37650;52.790;18.268;2023-02-15T17:37:11;101633.42;;;1.35;100.00
40171;BME280;37650;52.790;18.268;2023-02-15T17:40:35;101627.63;;;1.31;100.00
40171;BME280;37650;52.790;18.268;2023-02-15T17:44:02;101628.64;;;1.29;100.00
40171;BME280;37650;52.790;18.268;2023-02-15T17:47:25;101636.41;;;1.28;100.00
40171;BME280;37650;52.790;18.268;2023-02-15T17:50:49;101637.38;;;1.25;100.00
40171;BME280;37650;52.790;18.268;2023-02-15T17:54:11;101636.98;;;1.23;100.00
40171;BME280;37650;52.790;18.268;2023-02-15T17:57:52;101635.70;;;1.19;100.00
40171;BME280;37650;52.790;18.268;2023-02-15T18:01:17;101635.64;;;1.16;100.00
40171;BME280;37650;52.790;18.268;2023-02-15T18:05:00;101634.18;;;1.12;100.00
40171;BME280;37650;52.790;18.268;2023-02-15T18:08:48;101630.30;;;1.09;100.00
40171;BME280;37650;52.790;18.268;2023-02-15T18:12:32;101627.77;;;1.04;100.00
40171;BME280;37650;52.790;18.268;2023-02-15T18:15:57;101621.48;;;1.01;100.00
40171;BME280;37650;52.790;18.268;2023-02-15T18:19:23;101614.87;;;0.99;100.00
40171;BME280;37650;52.790;18.268;2023-02-15T18:22:45;101615.17;;;0.97;100.00
40171;BME280;37650;52.790;18.268;2023-02-15T18:26:11;101620.15;;;0.95;100.00
40171;BME280;37650;52.790;18.268;2023-02-15T18:29:34;101621.29;;;0.92;100.00
40171;BME280;37650;52.790;18.268;2023-02-15T18:33:00;101619.31;;;0.89;100.00
40171;BME280;37650;52.790;18.268;2023-02-15T18:36:30;101621.98;;;0.84;100.00
40171;BME280;37650;52.790;18.268;2023-02-15T18:39:56;101620.34;;;0.80;100.00
40171;BME280;37650;52.790;18.268;2023-02-15T18:43:23;101614.33;;;0.75;100.00
40171;BME280;37650;52.790;18.268;2023-02-15T18:47:01;101615.06;;;0.68;100.00
40171;BME280;37650;52.790;18.268;2023-02-15T18:50:31;101611.27;;;0.62;100.00
40171;BME280;37650;52.790;18.268;2023-02-15T18:54:01;101609.34;;;0.53;100.00
40171;BME280;37650;52.790;18.268;2023-02-15T18:57:23;101607.15;;;0.48;100.00
40171;BME280;37650;52.790;18.268;2023-02-15T19:00:48;101604.25;;;0.41;100.00
40171;BME280;37650;52.790;18.268;2023-02-15T19:04:09;101596.15;;;0.35;100.00
40171;BME280;37650;52.790;18.268;2023-02-15T19:07:31;101595.73;;;0.32;100.00
40171;BME280;37650;52.790;18.268;2023-02-15T19:10:55;101597.42;;;0.30;100.00
40171;BME280;37650;52.790;18.268;2023-02-15T19:14:30;101597.38;;;0.29;100.00
40171;BME280;37650;52.790;18.268;2023-02-15T19:17:55;101593.74;;;0.28;100.00
40171;BME280;37650;52.790;18.268;2023-02-15T19:21:19;101586.98;;;0.26;100.00
40171;BME280;37650;52.790;18.268;2023-02-15T19:24:43;101589.21;;;0.26;100.00
40171;BME280;37650;52.790;18.268;2023-02-15T19:28:17;101587.98;;;0.26;100.00
40171;BME280;37650;52.790;18.268;2023-02-15T19:31:42;101584.17;;;0.25;100.00
40171;BME280;37650;52.790;18.268;2023-02-15T19:35:22;101580.73;;;0.18;100.00
40171;BME280;37650;52.790;18.268;2023-02-15T19:38:53;101577.33;;;0.13;100.00
40171;BME280;37650;52.790;18.268;2023-02-15T19:42:21;101577.62;;;0.11;100.00
40171;BME280;37650;52.790;18.268;2023-02-15T19:45:46;101576.42;;;0.12;100.00
40171;BME280;37650;52.790;18.268;2023-02-15T19:49:10;101571.52;;;0.09;100.00
40171;BME280;37650;52.790;18.268;2023-02-15T19:52:33;101563.45;;;0.03;100.00
40171;BME280;37650;52.790;18.268;2023-02-15T19:56:06;101555.55;;;-0.03;100.00
40171;BME280;37650;52.790;18.268;2023-02-15T19:59:31;101548.02;;;-0.08;100.00
40171;BME280;37650;52.790;18.268;2023-02-15T20:02:58;101541.86;;;-0.12;100.00
40171;BME280;37650;52.790;18.268;2023-02-15T20:06:22;101541.30;;;-0.14;100.00
40171;BME280;37650;52.790;18.268;2023-02-15T20:09:44;101539.80;;;-0.12;100.00
40171;BME280;37650;52.790;18.268;2023-02-15T20:13:18;101531.77;;;-0.16;100.00
40171;BME280;37650;52.790;18.268;2023-02-15T20:16:42;101527.55;;;-0.19;100.00
40171;BME280;37650;52.790;18.268;2023-02-15T20:20:11;101528.23;;;-0.19;100.00
40171;BME280;37650;52.790;18.268;2023-02-15T20:23:35;101526.48;;;-0.20;100.00
40171;BME280;37650;52.790;18.268;2023-02-15T20:26:58;101521.59;;;-0.23;100.00
40171;BME280;37650;52.790;18.268;2023-02-15T20:30:26;101512.91;;;-0.25;100.00
40171;BME280;37650;52.790;18.268;2023-02-15T20:33:49;101514.77;;;-0.26;100.00